Hauptseite
METAR-TAF:

METAR-TAF

Flughäfen :

Leipzig-Altenburg Airport

Altenburg, Deutschland

Breite: 50-58N, Länge: 012-30E, Höhe: 195 m

Beobachtung

Neuester Wetterbericht von vor 33 Minuten, um 19:20 UTC
Wind 10 kt aus Südwest
Temperatur 10°C
Luftfeuchtigkeit 76%
Luftdruck 1012 hPa
Sichtweite 10 km oder mehr

METAR: EDAC 181920Z AUTO 22010KT 9999 // FEW036/// BKN110/// 10/06 Q1012

Zeit: 21:53 (19:53 UTC)

Prognose

Neuester Wetterbericht von vor 2 Stunden und 53 Minuten, um 17:00 UTC
Gültige Prognose vom 18 um 18 UTC bis 19 um 03 UTC
Wind 5 kt aus West/Südwest
Sichtweite 10 km oder mehr
Geschlossene Wolkendecke in der Höhe von 3500 ft
Wahrscheinlichkeit 30% :
Zeitweise
vom 18 um 18 UTC bis 18 um 20 UTC
Aufgelockert bewölkt in der Höhe von 1500 ft, Kumulonimbus.
Durchbrochene Bewölkung in der Höhe von 2000 ft
Gewitter, Regen

TAF: EDAC 181700Z 1818/1903 24005KT 9999 OVC035 PROB30 TEMPO 1818/1820 TSRA SCT015CB BKN020

Wetterbeobachtungen und Prognosen von mehr als 4000 Flughäfen (METAR und TAF Bericht).

Die verfügbaren Stationen werden durch gelbe und rote Markierungen auf der Karte dargestellt.

Führen Sie die Maus auf sie, um den Namen der Station zu sehen.

Darauf klicken, um die Beobachtung von Wetterbeobachtungen und Prognosen zu sehen.

Um die Karte zu ändern : klicken Sie auf den grünen Tasten mit einem schwarzen Kreuz Zum Vergrößern, auf den grünen Button mit einem Gedankenstrich zu verkleinern, oder auf die grünen Pfeile für benachbarte Karten.


METAR-TAF: